You are listening to:
KLAX Final App (North/South) - Los Angeles, California, United States

KLAX 011253Z 01007KT 10SM CLR 12/M13 A3021 RMK AO2 SLP227 T01171133

If stream doesn't start automatically press the play button
If stream stops then reload player then press play